sensor_id;sensor_type;location;lat;lon;timestamp;P1;durP1;ratioP1;P2;durP2;ratioP2
21519;SDS011;10921;53.614;9.882;2022-10-16T00:01:22;22.65;;;19.92;;
21519;SDS011;10921;53.614;9.882;2022-10-16T00:03:49;22.40;;;19.77;;
21519;SDS011;10921;53.614;9.882;2022-10-16T00:06:17;20.83;;;18.83;;
21519;SDS011;10921;53.614;9.882;2022-10-16T00:08:45;21.45;;;19.05;;
21519;SDS011;10921;53.614;9.882;2022-10-16T00:11:22;23.48;;;19.50;;
21519;SDS011;10921;53.614;9.882;2022-10-16T00:13:54;20.33;;;18.13;;
21519;SDS011;10921;53.614;9.882;2022-10-16T00:16:23;19.00;;;16.98;;
21519;SDS011;10921;53.614;9.882;2022-10-16T00:18:50;19.38;;;16.98;;
21519;SDS011;10921;53.614;9.882;2022-10-16T00:21:18;19.85;;;16.38;;
21519;SDS011;10921;53.614;9.882;2022-10-16T00:23:46;23.08;;;16.98;;
21519;SDS011;10921;53.614;9.882;2022-10-16T00:26:14;21.10;;;15.65;;
21519;SDS011;10921;53.614;9.882;2022-10-16T00:28:42;16.45;;;14.73;;
21519;SDS011;10921;53.614;9.882;2022-10-16T00:31:10;19.60;;;14.82;;
21519;SDS011;10921;53.614;9.882;2022-10-16T00:33:37;18.70;;;13.90;;
21519;SDS011;10921;53.614;9.882;2022-10-16T00:36:06;16.60;;;14.35;;
21519;SDS011;10921;53.614;9.882;2022-10-16T00:38:34;14.38;;;12.73;;
21519;SDS011;10921;53.614;9.882;2022-10-16T00:41:00;14.60;;;13.13;;
21519;SDS011;10921;53.614;9.882;2022-10-16T00:43:34;15.93;;;13.77;;
21519;SDS011;10921;53.614;9.882;2022-10-16T00:46:15;17.42;;;13.20;;
21519;SDS011;10921;53.614;9.882;2022-10-16T00:49:00;17.90;;;12.90;;
21519;SDS011;10921;53.614;9.882;2022-10-16T00:51:32;13.93;;;12.52;;
21519;SDS011;10921;53.614;9.882;2022-10-16T00:54:02;18.50;;;12.80;;
21519;SDS011;10921;53.614;9.882;2022-10-16T00:58:57;14.63;;;13.00;;
21519;SDS011;10921;53.614;9.882;2022-10-16T01:01:27;13.87;;;12.50;;
21519;SDS011;10921;53.614;9.882;2022-10-16T01:03:54;13.45;;;12.00;;
21519;SDS011;10921;53.614;9.882;2022-10-16T01:06:36;12.75;;;11.55;;
21519;SDS011;10921;53.614;9.882;2022-10-16T01:09:33;13.48;;;12.10;;
21519;SDS011;10921;53.614;9.882;2022-10-16T01:12:14;13.98;;;12.48;;
21519;SDS011;10921;53.614;9.882;2022-10-16T01:15:06;19.08;;;12.52;;
21519;SDS011;10921;53.614;9.882;2022-10-16T01:17:43;13.48;;;12.07;;
21519;SDS011;10921;53.614;9.882;2022-10-16T01:28:34;13.75;;;12.38;;
21519;SDS011;10921;53.614;9.882;2022-10-16T01:31:06;14.20;;;11.90;;
21519;SDS011;10921;53.614;9.882;2022-10-16T01:33:38;12.68;;;11.55;;
21519;SDS011;10921;53.614;9.882;2022-10-16T01:36:25;12.98;;;11.68;;
21519;SDS011;10921;53.614;9.882;2022-10-16T01:38:58;13.27;;;11.97;;
21519;SDS011;10921;53.614;9.882;2022-10-16T01:41:30;13.23;;;12.00;;
21519;SDS011;10921;53.614;9.882;2022-10-16T01:44:03;13.18;;;11.25;;
21519;SDS011;10921;53.614;9.882;2022-10-16T01:46:36;16.38;;;11.73;;
21519;SDS011;10921;53.614;9.882;2022-10-16T01:49:04;12.63;;;11.13;;
21519;SDS011;10921;53.614;9.882;2022-10-16T01:51:32;16.85;;;11.15;;
21519;SDS011;10921;53.614;9.882;2022-10-16T01:54:01;15.73;;;11.40;;
21519;SDS011;10921;53.614;9.882;2022-10-16T01:56:28;12.38;;;11.07;;
21519;SDS011;10921;53.614;9.882;2022-10-16T01:58:57;13.23;;;11.60;;
21519;SDS011;10921;53.614;9.882;2022-10-16T02:01:31;12.57;;;11.02;;
21519;SDS011;10921;53.614;9.882;2022-10-16T02:04:03;18.40;;;11.13;;
21519;SDS011;10921;53.614;9.882;2022-10-16T02:06:33;12.30;;;11.05;;
21519;SDS011;10921;53.614;9.882;2022-10-16T02:09:00;11.75;;;10.63;;
21519;SDS011;10921;53.614;9.882;2022-10-16T02:11:27;12.10;;;11.00;;
21519;SDS011;10921;53.614;9.882;2022-10-16T02:14:06;11.65;;;10.52;;
21519;SDS011;10921;53.614;9.882;2022-10-16T02:16:34;12.63;;;10.73;;
21519;SDS011;10921;53.614;9.882;2022-10-16T02:19:04;12.02;;;10.85;;
21519;SDS011;10921;53.614;9.882;2022-10-16T02:21:33;13.52;;;10.77;;
21519;SDS011;10921;53.614;9.882;2022-10-16T02:29:52;15.75;;;10.73;;
21519;SDS011;10921;53.614;9.882;2022-10-16T02:32:25;11.88;;;10.63;;
21519;SDS011;10921;53.614;9.882;2022-10-16T02:34:57;13.80;;;10.63;;
21519;SDS011;10921;53.614;9.882;2022-10-16T02:37:26;11.52;;;10.27;;
21519;SDS011;10921;53.614;9.882;2022-10-16T02:39:53;11.45;;;10.45;;
21519;SDS011;10921;53.614;9.882;2022-10-16T02:42:24;12.63;;;10.65;;
21519;SDS011;10921;53.614;9.882;2022-10-16T02:44:54;11.73;;;10.63;;
21519;SDS011;10921;53.614;9.882;2022-10-16T02:47:20;11.90;;;10.73;;
21519;SDS011;10921;53.614;9.882;2022-10-16T02:49:46;13.93;;;11.13;;
21519;SDS011;10921;53.614;9.882;2022-10-16T02:52:13;14.20;;;10.57;;
21519;SDS011;10921;53.614;9.882;2022-10-16T02:54:39;12.13;;;10.63;;
21519;SDS011;10921;53.614;9.882;2022-10-16T02:57:06;11.32;;;10.32;;
21519;SDS011;10921;53.614;9.882;2022-10-16T02:59:32;15.98;;;10.50;;
21519;SDS011;10921;53.614;9.882;2022-10-16T03:01:58;14.73;;;10.43;;
21519;SDS011;10921;53.614;9.882;2022-10-16T03:04:25;12.77;;;10.45;;
21519;SDS011;10921;53.614;9.882;2022-10-16T03:06:51;11.02;;;10.02;;
21519;SDS011;10921;53.614;9.882;2022-10-16T03:09:18;11.15;;;10.00;;
21519;SDS011;10921;53.614;9.882;2022-10-16T03:11:44;12.18;;;10.70;;
21519;SDS011;10921;53.614;9.882;2022-10-16T03:14:10;11.30;;;10.32;;
21519;SDS011;10921;53.614;9.882;2022-10-16T03:16:37;10.48;;;9.57;;
21519;SDS011;10921;53.614;9.882;2022-10-16T03:19:03;10.93;;;9.95;;
21519;SDS011;10921;53.614;9.882;2022-10-16T03:21:30;13.20;;;10.35;;
21519;SDS011;10921;53.614;9.882;2022-10-16T03:23:56;11.45;;;9.90;;
21519;SDS011;10921;53.614;9.882;2022-10-16T03:26:22;11.40;;;10.30;;
21519;SDS011;10921;53.614;9.882;2022-10-16T03:28:52;10.70;;;9.75;;
21519;SDS011;10921;53.614;9.882;2022-10-16T03:31:18;12.48;;;10.52;;
21519;SDS011;10921;53.614;9.882;2022-10-16T03:33:45;10.93;;;9.80;;
21519;SDS011;10921;53.614;9.882;2022-10-16T03:36:11;15.18;;;10.20;;
21519;SDS011;10921;53.614;9.882;2022-10-16T03:38:38;14.77;;;10.45;;
21519;SDS011;10921;53.614;9.882;2022-10-16T03:41:04;11.75;;;10.48;;
21519;SDS011;10921;53.614;9.882;2022-10-16T03:43:31;12.05;;;10.38;;
21519;SDS011;10921;53.614;9.882;2022-10-16T03:45:57;12.05;;;9.95;;
21519;SDS011;10921;53.614;9.882;2022-10-16T03:48:24;11.75;;;10.15;;
21519;SDS011;10921;53.614;9.882;2022-10-16T03:50:50;11.20;;;10.18;;
21519;SDS011;10921;53.614;9.882;2022-10-16T03:53:17;12.00;;;9.52;;
21519;SDS011;10921;53.614;9.882;2022-10-16T03:55:44;11.43;;;10.20;;
21519;SDS011;10921;53.614;9.882;2022-10-16T03:58:10;11.50;;;9.90;;
21519;SDS011;10921;53.614;9.882;2022-10-16T04:00:41;13.45;;;10.35;;
21519;SDS011;10921;53.614;9.882;2022-10-16T04:03:09;11.23;;;10.02;;
21519;SDS011;10921;53.614;9.882;2022-10-16T04:05:36;13.65;;;10.20;;
21519;SDS011;10921;53.614;9.882;2022-10-16T04:08:03;12.13;;;10.18;;
21519;SDS011;10921;53.614;9.882;2022-10-16T04:10:30;12.15;;;10.07;;
21519;SDS011;10921;53.614;9.882;2022-10-16T04:12:56;11.07;;;10.00;;
21519;SDS011;10921;53.614;9.882;2022-10-16T04:15:23;11.45;;;10.35;;
21519;SDS011;10921;53.614;9.882;2022-10-16T04:17:49;11.48;;;10.40;;
21519;SDS011;10921;53.614;9.882;2022-10-16T04:20:16;13.82;;;10.73;;
21519;SDS011;10921;53.614;9.882;2022-10-16T04:22:43;14.93;;;10.38;;
21519;SDS011;10921;53.614;9.882;2022-10-16T04:25:09;11.50;;;10.35;;
21519;SDS011;10921;53.614;9.882;2022-10-16T04:27:37;11.57;;;10.40;;
21519;SDS011;10921;53.614;9.882;2022-10-16T04:30:10;11.80;;;10.20;;
21519;SDS011;10921;53.614;9.882;2022-10-16T04:32:36;11.13;;;10.02;;
21519;SDS011;10921;53.614;9.882;2022-10-16T04:35:03;10.73;;;9.80;;
21519;SDS011;10921;53.614;9.882;2022-10-16T04:37:29;18.23;;;10.32;;
21519;SDS011;10921;53.614;9.882;2022-10-16T04:39:56;10.68;;;9.43;;
21519;SDS011;10921;53.614;9.882;2022-10-16T04:42:22;11.65;;;9.80;;
21519;SDS011;10921;53.614;9.882;2022-10-16T04:44:51;12.63;;;10.00;;
21519;SDS011;10921;53.614;9.882;2022-10-16T04:47:18;10.98;;;9.88;;
21519;SDS011;10921;53.614;9.882;2022-10-16T04:49:44;16.30;;;10.45;;
21519;SDS011;10921;53.614;9.882;2022-10-16T04:52:10;11.55;;;10.40;;
21519;SDS011;10921;53.614;9.882;2022-10-16T04:54:37;13.32;;;9.73;;
21519;SDS011;10921;53.614;9.882;2022-10-16T04:57:03;11.57;;;10.13;;
21519;SDS011;10921;53.614;9.882;2022-10-16T04:59:31;12.93;;;10.43;;
21519;SDS011;10921;53.614;9.882;2022-10-16T05:01:57;16.40;;;10.40;;
21519;SDS011;10921;53.614;9.882;2022-10-16T05:04:24;15.77;;;10.30;;
21519;SDS011;10921;53.614;9.882;2022-10-16T05:06:50;11.30;;;10.30;;
21519;SDS011;10921;53.614;9.882;2022-10-16T05:09:16;11.38;;;10.20;;
21519;SDS011;10921;53.614;9.882;2022-10-16T05:11:43;18.67;;;10.27;;
21519;SDS011;10921;53.614;9.882;2022-10-16T05:14:10;16.08;;;11.30;;
21519;SDS011;10921;53.614;9.882;2022-10-16T05:16:41;12.82;;;11.52;;
21519;SDS011;10921;53.614;9.882;2022-10-16T05:19:08;12.77;;;11.40;;
21519;SDS011;10921;53.614;9.882;2022-10-16T05:21:54;12.65;;;11.38;;
21519;SDS011;10921;53.614;9.882;2022-10-16T05:24:20;16.35;;;11.57;;
21519;SDS011;10921;53.614;9.882;2022-10-16T05:26:47;20.50;;;12.10;;
21519;SDS011;10921;53.614;9.882;2022-10-16T05:29:13;16.00;;;11.93;;
21519;SDS011;10921;53.614;9.882;2022-10-16T05:31:40;13.65;;;11.38;;
21519;SDS011;10921;53.614;9.882;2022-10-16T05:34:06;13.00;;;11.70;;
21519;SDS011;10921;53.614;9.882;2022-10-16T05:36:35;15.75;;;11.38;;
21519;SDS011;10921;53.614;9.882;2022-10-16T05:39:02;22.55;;;12.32;;
21519;SDS011;10921;53.614;9.882;2022-10-16T05:41:28;18.33;;;11.73;;
21519;SDS011;10921;53.614;9.882;2022-10-16T05:43:55;16.92;;;12.43;;
21519;SDS011;10921;53.614;9.882;2022-10-16T05:46:21;19.45;;;12.15;;
21519;SDS011;10921;53.614;9.882;2022-10-16T05:48:48;18.33;;;11.82;;
21519;SDS011;10921;53.614;9.882;2022-10-16T05:51:17;22.23;;;12.43;;
21519;SDS011;10921;53.614;9.882;2022-10-16T05:53:43;16.20;;;12.30;;
21519;SDS011;10921;53.614;9.882;2022-10-16T05:56:10;13.45;;;12.07;;
21519;SDS011;10921;53.614;9.882;2022-10-16T05:58:39;17.92;;;12.23;;
21519;SDS011;10921;53.614;9.882;2022-10-16T06:01:14;13.73;;;11.88;;
21519;SDS011;10921;53.614;9.882;2022-10-16T06:03:42;14.95;;;11.77;;
21519;SDS011;10921;53.614;9.882;2022-10-16T06:06:13;20.20;;;12.63;;
21519;SDS011;10921;53.614;9.882;2022-10-16T06:08:41;14.15;;;11.65;;
21519;SDS011;10921;53.614;9.882;2022-10-16T06:11:10;16.63;;;11.38;;
21519;SDS011;10921;53.614;9.882;2022-10-16T06:13:39;11.98;;;10.73;;
21519;SDS011;10921;53.614;9.882;2022-10-16T06:16:09;13.63;;;11.20;;
21519;SDS011;10921;53.614;9.882;2022-10-16T06:18:36;13.23;;;11.30;;
21519;SDS011;10921;53.614;9.882;2022-10-16T06:21:11;14.80;;;11.30;;
21519;SDS011;10921;53.614;9.882;2022-10-16T06:23:40;14.77;;;10.93;;
21519;SDS011;10921;53.614;9.882;2022-10-16T06:26:08;15.65;;;11.35;;
21519;SDS011;10921;53.614;9.882;2022-10-16T06:28:36;17.77;;;11.90;;
21519;SDS011;10921;53.614;9.882;2022-10-16T06:31:03;13.13;;;11.32;;
21519;SDS011;10921;53.614;9.882;2022-10-16T06:33:33;12.20;;;11.02;;
21519;SDS011;10921;53.614;9.882;2022-10-16T06:36:03;18.77;;;11.57;;
21519;SDS011;10921;53.614;9.882;2022-10-16T06:38:35;16.02;;;11.05;;
21519;SDS011;10921;53.614;9.882;2022-10-16T06:41:01;16.02;;;11.07;;
21519;SDS011;10921;53.614;9.882;2022-10-16T06:43:29;14.43;;;11.63;;
21519;SDS011;10921;53.614;9.882;2022-10-16T06:45:59;17.23;;;11.38;;
21519;SDS011;10921;53.614;9.882;2022-10-16T06:48:26;13.50;;;11.57;;
21519;SDS011;10921;53.614;9.882;2022-10-16T06:51:00;14.73;;;11.55;;
21519;SDS011;10921;53.614;9.882;2022-10-16T06:53:31;14.13;;;12.00;;
21519;SDS011;10921;53.614;9.882;2022-10-16T06:56:18;16.35;;;11.93;;
21519;SDS011;10921;53.614;9.882;2022-10-16T06:58:46;12.75;;;11.43;;
21519;SDS011;10921;53.614;9.882;2022-10-16T07:01:14;16.58;;;11.82;;
21519;SDS011;10921;53.614;9.882;2022-10-16T07:03:42;19.45;;;12.02;;
21519;SDS011;10921;53.614;9.882;2022-10-16T07:06:10;15.25;;;11.90;;
21519;SDS011;10921;53.614;9.882;2022-10-16T07:08:39;16.65;;;12.43;;
21519;SDS011;10921;53.614;9.882;2022-10-16T07:11:08;17.25;;;11.82;;
21519;SDS011;10921;53.614;9.882;2022-10-16T07:13:38;13.13;;;11.82;;
21519;SDS011;10921;53.614;9.882;2022-10-16T07:16:10;20.65;;;12.45;;
21519;SDS011;10921;53.614;9.882;2022-10-16T07:18:38;17.20;;;12.40;;
21519;SDS011;10921;53.614;9.882;2022-10-16T07:21:10;14.18;;;12.77;;
21519;SDS011;10921;53.614;9.882;2022-10-16T07:23:39;22.38;;;12.98;;
21519;SDS011;10921;53.614;9.882;2022-10-16T07:26:06;18.10;;;12.73;;
21519;SDS011;10921;53.614;9.882;2022-10-16T07:28:33;15.23;;;11.93;;
21519;SDS011;10921;53.614;9.882;2022-10-16T07:31:04;17.60;;;12.35;;
21519;SDS011;10921;53.614;9.882;2022-10-16T07:33:33;15.77;;;12.35;;
21519;SDS011;10921;53.614;9.882;2022-10-16T07:36:01;14.20;;;12.50;;
21519;SDS011;10921;53.614;9.882;2022-10-16T07:38:27;16.40;;;12.43;;
21519;SDS011;10921;53.614;9.882;2022-10-16T07:40:58;16.25;;;12.57;;
21519;SDS011;10921;53.614;9.882;2022-10-16T07:43:25;14.00;;;12.70;;
21519;SDS011;10921;53.614;9.882;2022-10-16T07:45:52;16.65;;;12.55;;
21519;SDS011;10921;53.614;9.882;2022-10-16T07:48:19;14.77;;;12.18;;
21519;SDS011;10921;53.614;9.882;2022-10-16T07:50:46;13.48;;;12.18;;
21519;SDS011;10921;53.614;9.882;2022-10-16T07:53:12;13.57;;;12.13;;
21519;SDS011;10921;53.614;9.882;2022-10-16T07:55:39;14.80;;;12.55;;
21519;SDS011;10921;53.614;9.882;2022-10-16T07:58:06;14.75;;;12.75;;
21519;SDS011;10921;53.614;9.882;2022-10-16T08:00:32;13.38;;;12.13;;
21519;SDS011;10921;53.614;9.882;2022-10-16T08:02:59;13.02;;;11.88;;
21519;SDS011;10921;53.614;9.882;2022-10-16T08:05:26;16.80;;;13.20;;
21519;SDS011;10921;53.614;9.882;2022-10-16T08:07:54;16.20;;;12.80;;
21519;SDS011;10921;53.614;9.882;2022-10-16T08:10:22;15.45;;;12.77;;
21519;SDS011;10921;53.614;9.882;2022-10-16T08:12:51;15.65;;;12.60;;
21519;SDS011;10921;53.614;9.882;2022-10-16T08:15:18;20.15;;;12.65;;
21519;SDS011;10921;53.614;9.882;2022-10-16T08:17:58;12.68;;;11.38;;
21519;SDS011;10921;53.614;9.882;2022-10-16T08:20:29;13.60;;;12.18;;
21519;SDS011;10921;53.614;9.882;2022-10-16T08:22:56;15.02;;;12.45;;
21519;SDS011;10921;53.614;9.882;2022-10-16T08:25:23;13.95;;;12.27;;
21519;SDS011;10921;53.614;9.882;2022-10-16T08:27:50;12.73;;;11.50;;
21519;SDS011;10921;53.614;9.882;2022-10-16T08:30:17;15.27;;;11.65;;
21519;SDS011;10921;53.614;9.882;2022-10-16T08:32:46;17.67;;;11.90;;
21519;SDS011;10921;53.614;9.882;2022-10-16T08:35:13;15.20;;;11.98;;
21519;SDS011;10921;53.614;9.882;2022-10-16T08:37:41;12.80;;;11.52;;
21519;SDS011;10921;53.614;9.882;2022-10-16T08:40:15;12.77;;;11.43;;
21519;SDS011;10921;53.614;9.882;2022-10-16T08:51:20;15.38;;;11.75;;
21519;SDS011;10921;53.614;9.882;2022-10-16T08:53:53;18.15;;;12.07;;
21519;SDS011;10921;53.614;9.882;2022-10-16T08:56:25;13.65;;;11.25;;
21519;SDS011;10921;53.614;9.882;2022-10-16T08:58:52;12.98;;;11.55;;
21519;SDS011;10921;53.614;9.882;2022-10-16T09:01:35;15.48;;;11.38;;
21519;SDS011;10921;53.614;9.882;2022-10-16T09:07:01;12.15;;;11.10;;
21519;SDS011;10921;53.614;9.882;2022-10-16T09:15:23;12.57;;;11.40;;
21519;SDS011;10921;53.614;9.882;2022-10-16T09:18:06;12.05;;;11.00;;
21519;SDS011;10921;53.614;9.882;2022-10-16T09:20:51;14.35;;;10.60;;
21519;SDS011;10921;53.614;9.882;2022-10-16T09:23:25;11.32;;;10.20;;
21519;SDS011;10921;53.614;9.882;2022-10-16T09:25:54;12.85;;;10.10;;
21519;SDS011;10921;53.614;9.882;2022-10-16T09:28:21;10.77;;;9.65;;
21519;SDS011;10921;53.614;9.882;2022-10-16T09:30:48;11.77;;;10.02;;
21519;SDS011;10921;53.614;9.882;2022-10-16T09:33:17;12.27;;;10.18;;
21519;SDS011;10921;53.614;9.882;2022-10-16T09:35:46;15.63;;;10.40;;
21519;SDS011;10921;53.614;9.882;2022-10-16T09:40:51;11.20;;;10.02;;
21519;SDS011;10921;53.614;9.882;2022-10-16T09:48:59;12.88;;;9.50;;
21519;SDS011;10921;53.614;9.882;2022-10-16T09:51:47;11.98;;;8.88;;
21519;SDS011;10921;53.614;9.882;2022-10-16T09:54:14;11.10;;;8.40;;
21519;SDS011;10921;53.614;9.882;2022-10-16T09:56:43;10.32;;;8.55;;
21519;SDS011;10921;53.614;9.882;2022-10-16T09:59:13;9.70;;;8.60;;
21519;SDS011;10921;53.614;9.882;2022-10-16T10:01:43;9.25;;;8.30;;
21519;SDS011;10921;53.614;9.882;2022-10-16T10:04:12;9.30;;;8.35;;
21519;SDS011;10921;53.614;9.882;2022-10-16T10:06:45;9.07;;;8.18;;
21519;SDS011;10921;53.614;9.882;2022-10-16T10:11:53;10.57;;;8.32;;
21519;SDS011;10921;53.614;9.882;2022-10-16T10:14:23;9.52;;;8.25;;
21519;SDS011;10921;53.614;9.882;2022-10-16T10:16:52;11.50;;;8.30;;
21519;SDS011;10921;53.614;9.882;2022-10-16T10:19:28;10.25;;;8.50;;
21519;SDS011;10921;53.614;9.882;2022-10-16T10:24:24;9.50;;;8.50;;
21519;SDS011;10921;53.614;9.882;2022-10-16T10:26:54;12.18;;;8.60;;
21519;SDS011;10921;53.614;9.882;2022-10-16T10:29:32;10.88;;;8.90;;
21519;SDS011;10921;53.614;9.882;2022-10-16T10:34:56;11.02;;;9.20;;
21519;SDS011;10921;53.614;9.882;2022-10-16T10:37:42;11.65;;;9.35;;
21519;SDS011;10921;53.614;9.882;2022-10-16T10:43:14;11.37;;;9.70;;
21519;SDS011;10921;53.614;9.882;2022-10-16T10:45:49;11.73;;;9.20;;
21519;SDS011;10921;53.614;9.882;2022-10-16T10:51:13;11.85;;;10.27;;
21519;SDS011;10921;53.614;9.882;2022-10-16T10:56:42;14.40;;;9.20;;
21519;SDS011;10921;53.614;9.882;2022-10-16T10:59:19;11.48;;;9.18;;
21519;SDS011;10921;53.614;9.882;2022-10-16T11:06:58;14.37;;;8.87;;
21519;SDS011;10921;53.614;9.882;2022-10-16T11:09:30;11.73;;;8.80;;
21519;SDS011;10921;53.614;9.882;2022-10-16T11:12:11;9.43;;;8.40;;
21519;SDS011;10921;53.614;9.882;2022-10-16T11:17:35;9.20;;;8.40;;
21519;SDS011;10921;53.614;9.882;2022-10-16T11:20:28;10.65;;;9.55;;
21519;SDS011;10921;53.614;9.882;2022-10-16T11:22:56;8.88;;;8.02;;
21519;SDS011;10921;53.614;9.882;2022-10-16T11:25:31;10.60;;;9.38;;
21519;SDS011;10921;53.614;9.882;2022-10-16T11:28:11;9.77;;;8.88;;
21519;SDS011;10921;53.614;9.882;2022-10-16T11:36:49;10.25;;;9.15;;
21519;SDS011;10921;53.614;9.882;2022-10-16T11:39:28;9.32;;;8.32;;
21519;SDS011;10921;53.614;9.882;2022-10-16T11:53:24;9.85;;;8.48;;
21519;SDS011;10921;53.614;9.882;2022-10-16T11:55:54;9.60;;;8.27;;
21519;SDS011;10921;53.614;9.882;2022-10-16T11:58:32;10.38;;;8.30;;
21519;SDS011;10921;53.614;9.882;2022-10-16T12:04:14;10.57;;;8.57;;
21519;SDS011;10921;53.614;9.882;2022-10-16T12:09:34;9.95;;;8.35;;
21519;SDS011;10921;53.614;9.882;2022-10-16T12:12:04;14.05;;;8.07;;
21519;SDS011;10921;53.614;9.882;2022-10-16T12:17:35;13.43;;;8.18;;
21519;SDS011;10921;53.614;9.882;2022-10-16T12:22:47;9.88;;;8.38;;
21519;SDS011;10921;53.614;9.882;2022-10-16T12:27:56;9.32;;;8.43;;
21519;SDS011;10921;53.614;9.882;2022-10-16T12:30:25;11.70;;;8.68;;
21519;SDS011;10921;53.614;9.882;2022-10-16T12:33:05;9.13;;;8.32;;
21519;SDS011;10921;53.614;9.882;2022-10-16T12:35:45;10.15;;;8.57;;
21519;SDS011;10921;53.614;9.882;2022-10-16T12:38:17;17.50;;;9.00;;
21519;SDS011;10921;53.614;9.882;2022-10-16T12:40:45;12.25;;;8.38;;
21519;SDS011;10921;53.614;9.882;2022-10-16T12:48:39;10.57;;;8.75;;
21519;SDS011;10921;53.614;9.882;2022-10-16T12:54:03;10.82;;;8.73;;
21519;SDS011;10921;53.614;9.882;2022-10-16T12:56:39;11.65;;;8.45;;
21519;SDS011;10921;53.614;9.882;2022-10-16T12:59:18;13.88;;;8.60;;
21519;SDS011;10921;53.614;9.882;2022-10-16T13:04:45;11.18;;;8.68;;
21519;SDS011;10921;53.614;9.882;2022-10-16T13:07:30;9.90;;;8.80;;
21519;SDS011;10921;53.614;9.882;2022-10-16T13:10:21;11.93;;;8.48;;
21519;SDS011;10921;53.614;9.882;2022-10-16T13:21:33;11.30;;;9.50;;
21519;SDS011;10921;53.614;9.882;2022-10-16T13:26:52;12.20;;;8.70;;
21519;SDS011;10921;53.614;9.882;2022-10-16T13:29:31;14.60;;;9.30;;
21519;SDS011;10921;53.614;9.882;2022-10-16T13:31:58;11.52;;;8.85;;
21519;SDS011;10921;53.614;9.882;2022-10-16T13:34:27;12.07;;;9.15;;
21519;SDS011;10921;53.614;9.882;2022-10-16T13:36:54;10.68;;;9.13;;
21519;SDS011;10921;53.614;9.882;2022-10-16T13:39:22;12.07;;;8.52;;
21519;SDS011;10921;53.614;9.882;2022-10-16T13:42:06;11.27;;;8.77;;
21519;SDS011;10921;53.614;9.882;2022-10-16T13:44:41;11.32;;;9.05;;
21519;SDS011;10921;53.614;9.882;2022-10-16T13:47:17;12.18;;;9.07;;
21519;SDS011;10921;53.614;9.882;2022-10-16T13:49:58;14.93;;;8.75;;
21519;SDS011;10921;53.614;9.882;2022-10-16T13:52:29;10.88;;;8.82;;
21519;SDS011;10921;53.614;9.882;2022-10-16T13:54:55;10.35;;;8.95;;
21519;SDS011;10921;53.614;9.882;2022-10-16T13:57:27;10.98;;;8.80;;
21519;SDS011;10921;53.614;9.882;2022-10-16T13:59:54;14.45;;;9.20;;
21519;SDS011;10921;53.614;9.882;2022-10-16T14:02:22;10.10;;;9.00;;
21519;SDS011;10921;53.614;9.882;2022-10-16T14:04:53;9.73;;;8.80;;
21519;SDS011;10921;53.614;9.882;2022-10-16T14:07:24;10.98;;;9.18;;
21519;SDS011;10921;53.614;9.882;2022-10-16T14:09:53;9.90;;;8.90;;
21519;SDS011;10921;53.614;9.882;2022-10-16T14:12:20;13.25;;;9.13;;
21519;SDS011;10921;53.614;9.882;2022-10-16T14:14:53;10.50;;;9.50;;
21519;SDS011;10921;53.614;9.882;2022-10-16T14:17:22;14.00;;;9.40;;
21519;SDS011;10921;53.614;9.882;2022-10-16T14:19:53;12.48;;;9.48;;
21519;SDS011;10921;53.614;9.882;2022-10-16T14:23:03;13.52;;;8.73;;
21519;SDS011;10921;53.614;9.882;2022-10-16T14:25:29;10.75;;;8.52;;
21519;SDS011;10921;53.614;9.882;2022-10-16T14:32:56;10.25;;;8.65;;
21519;SDS011;10921;53.614;9.882;2022-10-16T14:35:28;12.88;;;9.48;;
21519;SDS011;10921;53.614;9.882;2022-10-16T14:37:55;13.48;;;9.13;;
21519;SDS011;10921;53.614;9.882;2022-10-16T14:40:23;10.27;;;9.23;;
21519;SDS011;10921;53.614;9.882;2022-10-16T14:42:52;11.77;;;8.27;;
21519;SDS011;10921;53.614;9.882;2022-10-16T14:45:20;10.23;;;8.55;;
21519;SDS011;10921;53.614;9.882;2022-10-16T14:50:18;11.43;;;8.95;;
21519;SDS011;10921;53.614;9.882;2022-10-16T14:52:44;10.70;;;8.80;;
21519;SDS011;10921;53.614;9.882;2022-10-16T14:55:11;14.60;;;8.88;;
21519;SDS011;10921;53.614;9.882;2022-10-16T14:57:38;12.35;;;8.90;;
21519;SDS011;10921;53.614;9.882;2022-10-16T15:00:16;15.25;;;8.50;;
21519;SDS011;10921;53.614;9.882;2022-10-16T15:02:45;9.93;;;9.02;;
21519;SDS011;10921;53.614;9.882;2022-10-16T15:05:14;20.00;;;8.98;;
21519;SDS011;10921;53.614;9.882;2022-10-16T15:07:41;14.35;;;8.95;;
21519;SDS011;10921;53.614;9.882;2022-10-16T15:10:08;10.63;;;8.80;;
21519;SDS011;10921;53.614;9.882;2022-10-16T15:12:35;10.82;;;8.98;;
21519;SDS011;10921;53.614;9.882;2022-10-16T15:15:04;13.40;;;9.32;;
21519;SDS011;10921;53.614;9.882;2022-10-16T15:17:47;12.68;;;8.80;;
21519;SDS011;10921;53.614;9.882;2022-10-16T15:20:14;13.40;;;8.80;;
21519;SDS011;10921;53.614;9.882;2022-10-16T15:22:40;13.93;;;9.80;;
21519;SDS011;10921;53.614;9.882;2022-10-16T15:25:15;11.38;;;9.38;;
21519;SDS011;10921;53.614;9.882;2022-10-16T15:27:53;12.43;;;9.23;;
21519;SDS011;10921;53.614;9.882;2022-10-16T15:30:20;18.60;;;9.30;;
21519;SDS011;10921;53.614;9.882;2022-10-16T15:32:46;14.57;;;10.18;;
21519;SDS011;10921;53.614;9.882;2022-10-16T15:35:12;12.40;;;9.65;;
21519;SDS011;10921;53.614;9.882;2022-10-16T15:37:39;10.07;;;9.18;;
21519;SDS011;10921;53.614;9.882;2022-10-16T15:40:05;12.10;;;9.90;;
21519;SDS011;10921;53.614;9.882;2022-10-16T15:42:32;14.85;;;9.88;;
21519;SDS011;10921;53.614;9.882;2022-10-16T15:44:59;12.25;;;9.57;;
21519;SDS011;10921;53.614;9.882;2022-10-16T15:47:25;14.32;;;9.60;;
21519;SDS011;10921;53.614;9.882;2022-10-16T15:49:52;12.60;;;9.63;;
21519;SDS011;10921;53.614;9.882;2022-10-16T15:52:18;15.23;;;11.20;;
21519;SDS011;10921;53.614;9.882;2022-10-16T15:54:45;15.32;;;10.60;;
21519;SDS011;10921;53.614;9.882;2022-10-16T15:57:18;14.32;;;9.15;;
21519;SDS011;10921;53.614;9.882;2022-10-16T15:59:45;13.52;;;9.88;;
21519;SDS011;10921;53.614;9.882;2022-10-16T16:02:11;11.88;;;9.93;;
21519;SDS011;10921;53.614;9.882;2022-10-16T16:04:38;15.05;;;10.63;;
21519;SDS011;10921;53.614;9.882;2022-10-16T16:07:09;10.18;;;8.63;;
21519;SDS011;10921;53.614;9.882;2022-10-16T16:09:36;11.95;;;8.98;;
21519;SDS011;10921;53.614;9.882;2022-10-16T16:12:02;15.88;;;10.50;;
21519;SDS011;10921;53.614;9.882;2022-10-16T16:14:29;13.75;;;10.45;;
21519;SDS011;10921;53.614;9.882;2022-10-16T16:16:56;10.82;;;9.70;;
21519;SDS011;10921;53.614;9.882;2022-10-16T16:19:23;13.07;;;9.77;;
21519;SDS011;10921;53.614;9.882;2022-10-16T16:21:49;12.02;;;10.05;;
21519;SDS011;10921;53.614;9.882;2022-10-16T16:24:16;15.00;;;9.68;;
21519;SDS011;10921;53.614;9.882;2022-10-16T16:26:42;11.40;;;9.65;;
21519;SDS011;10921;53.614;9.882;2022-10-16T16:29:11;18.92;;;9.98;;
21519;SDS011;10921;53.614;9.882;2022-10-16T16:31:39;10.38;;;9.35;;
21519;SDS011;10921;53.614;9.882;2022-10-16T16:34:06;13.68;;;9.70;;
21519;SDS011;10921;53.614;9.882;2022-10-16T16:36:33;15.57;;;10.90;;
21519;SDS011;10921;53.614;9.882;2022-10-16T16:39:00;16.80;;;10.40;;
21519;SDS011;10921;53.614;9.882;2022-10-16T16:41:28;17.55;;;11.27;;
21519;SDS011;10921;53.614;9.882;2022-10-16T16:44:01;12.63;;;10.80;;
21519;SDS011;10921;53.614;9.882;2022-10-16T16:46:32;15.48;;;10.98;;
21519;SDS011;10921;53.614;9.882;2022-10-16T16:48:59;12.55;;;10.60;;
21519;SDS011;10921;53.614;9.882;2022-10-16T16:51:27;14.73;;;10.40;;